OTBH/IUD METAR and TAF weather

Enter ICAO airport designator
Station Type Date Time Source
OTBH METAR 2021/10/20 06:56 UTC NOAA

OTBH 200656Z AUTO 34017KT 9999 FEW200 34/21 A2992 RMK AO2 SLP133 T03430206 $


Station Type Date Time Source
OTBH Decoded METAR 2021/10/20 06:56 UTC NOAA

Station name not available
Oct 20, 2021 - 02:56 AM EDT / 2021.10.20 0656 UTC
Wind: from the NNW (340 degrees) at 20 MPH (17 KT):0
Visibility: greater than 7 mile(s):0
Sky conditions: mostly clear
Temperature: 93.7 F (34.3 C)
Heat index: 98.6 F (37.0 C):1
Dew Point: 69.1 F (20.6 C)
Relative Humidity: 44%
Pressure (altimeter): 29.92 in. Hg (1013 hPa)
ob: OTBH 200656Z AUTO 34017KT 9999 FEW200 34/21 A2992 RMK AO2 SLP133 T03430206
cycle: 7

Station Type Date Time Source
OTBH TAF 2021/10/20 00:06 UTC NOAA

TAF TAF OTBH 200000Z 2000/2106 32009KT 9999 SKC QNH2984INS
TEMPO 2000/2004 8000 BR
BECMG 2005/2006 34015KT 9999 SKC QNH2990INS
BECMG 2008/2009 33015G20KT 9999 SKC QNH2983INS
TEMPO 2010/2014 35015G25KT
BECMG 2014/2015 34010G15KT 9999 SKC QNH2985INS
BECMG 2020/2021 33010KT 9999 SKC QNH2987INS
BECMG 2104/2105 34010G15KT 9999 SKC QNH2991INS TX37/2009Z TN25/2000Z

Example: see airport list